createdAt,value
2019-03-23T00:00:39.828Z,11.27
2019-03-23T00:03:10.206Z,12.90
2019-03-23T00:05:40.549Z,15.40
2019-03-23T00:08:11.092Z,15.67
2019-03-23T00:10:41.302Z,16.60
2019-03-23T00:13:11.745Z,31.03
2019-03-23T00:15:42.132Z,34.33
2019-03-23T00:18:12.586Z,16.50
2019-03-23T00:20:42.926Z,14.03
2019-03-23T00:23:13.300Z,12.63
2019-03-23T00:25:43.466Z,11.17
2019-03-23T00:28:13.765Z,9.83
2019-03-23T00:30:44.089Z,10.10
2019-03-23T00:33:14.388Z,8.90
2019-03-23T00:35:44.838Z,10.00
2019-03-23T00:38:15.241Z,7.77
2019-03-23T00:40:45.637Z,7.10
2019-03-23T00:43:15.953Z,8.90
2019-03-23T00:45:46.317Z,7.90
2019-03-23T00:48:16.574Z,7.20
2019-03-23T00:50:46.876Z,8.17
2019-03-23T00:53:17.029Z,7.50
2019-03-23T00:55:47.318Z,9.43
2019-03-23T00:58:17.602Z,15.17
2019-03-23T01:00:48.269Z,13.13
2019-03-23T01:03:18.704Z,12.77
2019-03-23T01:05:49.055Z,14.47
2019-03-23T01:08:19.526Z,15.47
2019-03-23T01:10:49.916Z,19.57
2019-03-23T01:13:20.753Z,17.10
2019-03-23T01:15:50.980Z,16.23
2019-03-23T01:18:21.447Z,17.37
2019-03-23T01:20:51.774Z,19.77
2019-03-23T01:23:22.553Z,17.23
2019-03-23T01:25:52.893Z,12.73
2019-03-23T01:28:23.158Z,13.93
2019-03-23T01:30:53.536Z,12.33
2019-03-23T01:33:23.825Z,11.20
2019-03-23T01:35:54.142Z,9.43
2019-03-23T01:38:24.644Z,9.43
2019-03-23T01:40:55.044Z,9.47
2019-03-23T01:43:25.323Z,10.20
2019-03-23T01:45:55.686Z,13.50
2019-03-23T01:48:25.974Z,16.27
2019-03-23T01:50:56.310Z,23.37
2019-03-23T01:53:26.674Z,16.33
2019-03-23T01:55:56.948Z,17.67
2019-03-23T01:58:27.456Z,14.33
2019-03-23T02:00:57.810Z,14.13
2019-03-23T02:03:28.310Z,12.07
2019-03-23T02:05:58.565Z,13.13
2019-03-23T02:08:28.798Z,11.80
2019-03-23T02:10:59.108Z,12.20
2019-03-23T02:13:29.674Z,10.40
2019-03-23T02:16:00.147Z,11.77
2019-03-23T02:18:30.569Z,11.83
2019-03-23T02:21:02.138Z,13.50
2019-03-23T02:23:32.386Z,12.20
2019-03-23T02:26:02.710Z,10.57
2019-03-23T02:28:33.150Z,10.90
2019-03-23T02:31:03.741Z,8.93
2019-03-23T02:33:33.979Z,13.30
2019-03-23T02:36:04.153Z,11.97
2019-03-23T02:38:34.411Z,12.30
2019-03-23T02:41:04.851Z,10.00
2019-03-23T02:43:35.219Z,10.13
2019-03-23T02:46:05.699Z,8.43
2019-03-23T02:48:35.895Z,9.37
2019-03-23T02:51:06.264Z,11.10
2019-03-23T02:53:36.512Z,12.73
2019-03-23T02:56:07.102Z,10.00
2019-03-23T02:58:37.434Z,11.17
2019-03-23T03:01:07.711Z,13.97
2019-03-23T03:03:38.146Z,31.13
2019-03-23T03:06:08.590Z,21.50
2019-03-23T03:08:39.255Z,21.63
2019-03-23T03:11:09.642Z,28.77
2019-03-23T03:13:39.941Z,20.40
2019-03-23T03:16:10.261Z,12.60
2019-03-23T03:18:40.704Z,11.37
2019-03-23T03:21:11.088Z,11.40
2019-03-23T03:23:41.313Z,10.43
2019-03-23T03:26:11.957Z,9.50
2019-03-23T03:28:42.127Z,11.10
2019-03-23T03:31:12.600Z,10.07
2019-03-23T03:33:42.763Z,9.43
2019-03-23T03:36:13.090Z,9.83
2019-03-23T03:38:43.411Z,9.73
2019-03-23T03:41:15.047Z,10.80
2019-03-23T03:43:45.460Z,10.43
2019-03-23T03:46:15.681Z,11.20
2019-03-23T03:48:46.280Z,11.17
2019-03-23T03:51:16.472Z,9.90
2019-03-23T03:53:47.064Z,10.00
2019-03-23T03:56:17.321Z,10.50
2019-03-23T03:58:47.561Z,10.80
2019-03-23T04:01:17.850Z,12.30
2019-03-23T04:03:48.099Z,11.73
2019-03-23T04:06:18.342Z,12.27
2019-03-23T04:08:48.736Z,11.37
2019-03-23T04:11:19.363Z,12.73
2019-03-23T04:13:49.735Z,11.57
2019-03-23T04:16:20.016Z,11.37
2019-03-23T04:18:51.549Z,11.97
2019-03-23T04:21:21.834Z,11.03
2019-03-23T04:23:52.324Z,10.77
2019-03-23T04:26:22.535Z,12.03
2019-03-23T04:28:53.001Z,11.23
2019-03-23T04:31:23.403Z,11.43
2019-03-23T04:33:53.700Z,11.83
2019-03-23T04:36:24.057Z,11.77
2019-03-23T04:38:55.507Z,12.77
2019-03-23T04:41:26.973Z,12.17
2019-03-23T04:43:57.223Z,12.93
2019-03-23T04:46:27.715Z,11.70
2019-03-23T04:48:57.919Z,11.33
2019-03-23T04:51:28.465Z,12.73
2019-03-23T04:53:58.585Z,23.50
2019-03-23T04:56:29.083Z,14.67
2019-03-23T04:58:59.447Z,19.07
2019-03-23T05:01:29.719Z,21.30
2019-03-23T05:04:00.114Z,17.20
2019-03-23T05:06:30.227Z,18.87
2019-03-23T05:09:00.553Z,19.13
2019-03-23T05:11:32.068Z,20.37
2019-03-23T05:14:02.643Z,21.50
2019-03-23T05:16:33.065Z,23.47
2019-03-23T05:19:03.411Z,19.67
2019-03-23T05:21:33.663Z,18.90
2019-03-23T05:24:04.042Z,15.80
2019-03-23T05:26:34.569Z,15.53
2019-03-23T05:29:04.997Z,14.40
2019-03-23T05:31:35.268Z,14.30
2019-03-23T05:34:06.008Z,14.30
2019-03-23T05:36:36.520Z,13.43
2019-03-23T05:39:07.721Z,15.07
2019-03-23T05:41:40.654Z,15.73
2019-03-23T05:44:10.825Z,16.13
2019-03-23T05:46:41.182Z,17.27
2019-03-23T05:49:11.568Z,16.27
2019-03-23T05:51:41.834Z,15.47
2019-03-23T05:54:12.105Z,17.17
2019-03-23T05:56:43.628Z,17.70
2019-03-23T05:59:13.834Z,19.13
2019-03-23T06:01:44.039Z,17.33
2019-03-23T06:04:14.326Z,18.77
2019-03-23T06:06:44.713Z,17.43
2019-03-23T06:09:14.926Z,19.67
2019-03-23T06:11:45.308Z,17.73
2019-03-23T06:14:15.694Z,20.83
2019-03-23T06:16:46.017Z,19.83
2019-03-23T06:19:16.218Z,18.57
2019-03-23T06:21:46.675Z,18.97
2019-03-23T06:24:18.260Z,18.03
2019-03-23T06:26:48.604Z,19.40
2019-03-23T06:29:18.847Z,18.23
2019-03-23T06:31:49.106Z,17.43
2019-03-23T06:34:19.367Z,17.73
2019-03-23T06:36:49.454Z,17.43
2019-03-23T06:39:19.675Z,18.77
2019-03-23T06:41:49.950Z,18.80
2019-03-23T06:44:21.519Z,18.70
2019-03-23T06:46:51.811Z,19.73
2019-03-23T06:49:22.251Z,18.73
2019-03-23T06:51:52.507Z,19.00
2019-03-23T06:54:23.011Z,18.23
2019-03-23T06:56:53.491Z,18.17
2019-03-23T06:59:23.660Z,23.07
2019-03-23T07:01:54.194Z,38.17
2019-03-23T07:04:26.673Z,38.83
2019-03-23T07:06:56.541Z,30.33
2019-03-23T07:09:26.799Z,24.27
2019-03-23T07:11:57.234Z,22.50
2019-03-23T07:14:27.629Z,21.43
2019-03-23T07:16:57.947Z,20.10
2019-03-23T07:19:28.190Z,20.63
2019-03-23T07:21:58.625Z,21.27
2019-03-23T07:24:29.006Z,20.10
2019-03-23T07:26:59.367Z,23.07
2019-03-23T07:29:29.613Z,23.77
2019-03-23T07:32:05.679Z,21.07
2019-03-23T07:34:33.104Z,20.50
2019-03-23T07:37:04.573Z,20.97
2019-03-23T07:39:34.874Z,21.23
2019-03-23T07:42:05.306Z,21.83
2019-03-23T07:44:35.651Z,20.97
2019-03-23T07:47:06.005Z,21.97
2019-03-23T07:49:36.338Z,21.40
2019-03-23T07:52:06.958Z,22.30
2019-03-23T07:54:37.226Z,21.83
2019-03-23T07:57:07.570Z,22.47
2019-03-23T07:59:37.838Z,19.43
2019-03-23T08:02:08.198Z,20.63
2019-03-23T08:04:38.555Z,19.00
2019-03-23T08:07:08.815Z,21.70
2019-03-23T08:09:39.354Z,20.90
2019-03-23T08:12:09.668Z,20.87
2019-03-23T08:14:41.307Z,20.00
2019-03-23T08:17:11.614Z,16.53
2019-03-23T08:19:41.883Z,13.90
2019-03-23T08:22:12.288Z,15.73
2019-03-23T08:24:42.598Z,14.10
2019-03-23T08:27:12.922Z,15.20
2019-03-23T08:29:43.181Z,14.80
2019-03-23T08:32:13.714Z,14.23
2019-03-23T08:34:44.044Z,13.87
2019-03-23T08:37:14.442Z,13.57
2019-03-23T08:39:48.605Z,13.23
2019-03-23T08:42:16.632Z,12.03
2019-03-23T08:44:46.788Z,11.43
2019-03-23T08:47:17.187Z,12.87
2019-03-23T08:49:47.607Z,12.67
2019-03-23T08:52:17.873Z,11.83
2019-03-23T08:54:49.175Z,10.10
2019-03-23T08:57:19.703Z,11.50
2019-03-23T08:59:50.075Z,11.03
2019-03-23T09:02:21.815Z,11.70
2019-03-23T09:04:52.325Z,13.23
2019-03-23T09:07:23.832Z,15.00
2019-03-23T09:09:59.212Z,14.13
2019-03-23T09:12:26.286Z,26.00
2019-03-23T09:14:57.417Z,17.37
2019-03-23T09:17:27.645Z,17.83
2019-03-23T09:19:58.101Z,21.87
2019-03-23T09:22:28.705Z,15.87
2019-03-23T09:24:59.110Z,17.43
2019-03-23T09:27:29.339Z,16.87
2019-03-23T09:29:59.790Z,17.53
2019-03-23T09:32:29.968Z,19.37
2019-03-23T09:35:00.384Z,24.97
2019-03-23T09:37:31.748Z,26.37
2019-03-23T09:40:10.057Z,49.23
2019-03-23T09:42:33.977Z,22.10
2019-03-23T09:45:04.693Z,33.23
2019-03-23T09:47:35.014Z,18.07
2019-03-23T09:50:06.426Z,15.63
2019-03-23T09:52:36.774Z,14.70
2019-03-23T09:55:07.663Z,16.70
2019-03-23T09:57:37.772Z,13.00
2019-03-23T10:00:08.583Z,13.53
2019-03-23T10:02:39.147Z,12.30
2019-03-23T10:05:10.568Z,11.67
2019-03-23T10:07:40.860Z,13.17
2019-03-23T10:10:21.380Z,12.10
2019-03-23T10:12:43.833Z,11.80
2019-03-23T10:15:14.441Z,13.30
2019-03-23T10:17:44.673Z,11.80
2019-03-23T10:20:15.119Z,11.67
2019-03-23T10:22:45.325Z,11.00
2019-03-23T10:25:15.680Z,11.23
2019-03-23T10:27:45.784Z,10.50
2019-03-23T10:30:16.232Z,8.87
2019-03-23T10:32:46.437Z,8.00
2019-03-23T10:35:16.769Z,8.77
2019-03-23T10:37:47.037Z,9.33
2019-03-23T10:40:17.401Z,11.47
2019-03-23T10:42:47.853Z,8.70
2019-03-23T10:45:18.217Z,10.83
2019-03-23T10:47:48.748Z,11.07
2019-03-23T10:50:20.382Z,8.87
2019-03-23T10:52:50.696Z,9.90
2019-03-23T10:55:20.951Z,9.13
2019-03-23T10:57:51.373Z,8.67
2019-03-23T11:00:21.649Z,9.37
2019-03-23T11:02:52.001Z,9.50
2019-03-23T11:05:22.218Z,8.83
2019-03-23T11:07:52.447Z,9.77
2019-03-23T11:10:22.769Z,8.80
2019-03-23T11:12:53.104Z,8.33
2019-03-23T11:15:23.435Z,8.07
2019-03-23T11:17:53.798Z,8.17
2019-03-23T11:20:24.279Z,8.70
2019-03-23T11:22:54.784Z,8.00
2019-03-23T11:25:25.184Z,8.30
2019-03-23T11:27:55.441Z,8.50
2019-03-23T11:30:25.803Z,8.23
2019-03-23T11:32:55.943Z,7.53
2019-03-23T11:35:26.285Z,7.60
2019-03-23T11:37:57.929Z,8.43
2019-03-23T11:40:28.262Z,8.53
2019-03-23T11:42:58.702Z,8.37
2019-03-23T11:45:29.014Z,7.67
2019-03-23T11:47:59.350Z,6.97
2019-03-23T11:50:29.568Z,7.50
2019-03-23T11:52:59.963Z,7.20
2019-03-23T11:55:30.257Z,6.43
2019-03-23T11:58:00.717Z,5.90
2019-03-23T12:00:30.873Z,6.27
2019-03-23T12:03:01.320Z,6.90
2019-03-23T12:05:31.523Z,6.47
2019-03-23T12:08:01.969Z,6.00
2019-03-23T12:10:32.178Z,6.07
2019-03-23T12:13:02.565Z,6.50
2019-03-23T12:15:34.045Z,6.83
2019-03-23T12:18:04.482Z,6.53
2019-03-23T12:20:34.990Z,6.73
2019-03-23T12:23:05.412Z,7.07
2019-03-23T12:25:35.962Z,7.60
2019-03-23T12:28:06.281Z,7.00
2019-03-23T12:30:36.498Z,6.73
2019-03-23T12:33:06.751Z,7.93
2019-03-23T12:35:37.294Z,7.83
2019-03-23T12:38:07.683Z,7.27
2019-03-23T12:40:38.007Z,7.77
2019-03-23T12:43:08.277Z,7.77
2019-03-23T12:45:38.940Z,7.90
2019-03-23T12:48:09.286Z,7.60
2019-03-23T12:50:39.629Z,8.00
2019-03-23T12:53:09.861Z,6.90
2019-03-23T12:55:40.172Z,8.60
2019-03-23T12:58:10.495Z,7.80
2019-03-23T13:00:40.796Z,7.40
2019-03-23T13:03:11.144Z,7.73
2019-03-23T13:05:41.410Z,8.83
2019-03-23T13:08:11.844Z,7.90
2019-03-23T13:10:42.057Z,7.83
2019-03-23T13:13:12.458Z,8.60
2019-03-23T13:15:42.791Z,7.80
2019-03-23T13:18:13.107Z,8.30
2019-03-23T13:20:43.535Z,7.63
2019-03-23T13:23:14.789Z,8.50
2019-03-23T13:25:45.093Z,8.60
2019-03-23T13:28:15.424Z,8.77
2019-03-23T13:30:45.700Z,7.53
2019-03-23T13:33:16.138Z,8.60
2019-03-23T13:35:46.359Z,8.73
2019-03-23T13:38:16.739Z,9.10
2019-03-23T13:40:47.051Z,10.03
2019-03-23T13:43:17.492Z,9.47
2019-03-23T13:45:47.654Z,10.53
2019-03-23T13:48:19.477Z,10.63
2019-03-23T13:50:49.743Z,12.37
2019-03-23T13:53:20.243Z,11.70
2019-03-23T13:55:50.442Z,10.53
2019-03-23T13:58:20.787Z,17.60
2019-03-23T14:00:51.092Z,15.60
2019-03-23T14:03:21.440Z,11.00
2019-03-23T14:05:51.770Z,15.33
2019-03-23T14:08:22.116Z,15.90
2019-03-23T14:10:52.359Z,10.23
2019-03-23T14:13:22.847Z,11.03
2019-03-23T14:15:53.113Z,24.47
2019-03-23T14:18:23.479Z,9.53
2019-03-23T14:20:53.824Z,18.27
2019-03-23T14:23:24.028Z,7.67
2019-03-23T14:25:54.379Z,11.97
2019-03-23T14:28:24.685Z,9.63
2019-03-23T14:30:55.076Z,12.13
2019-03-23T14:33:25.295Z,10.47
2019-03-23T14:35:55.787Z,7.03
2019-03-23T14:38:25.991Z,6.97
2019-03-23T14:40:56.330Z,6.00
2019-03-23T14:43:26.771Z,6.23
2019-03-23T14:45:57.134Z,6.87
2019-03-23T14:48:27.296Z,7.43
2019-03-23T14:50:57.643Z,8.80
2019-03-23T14:53:27.939Z,8.80
2019-03-23T14:55:58.394Z,8.17
2019-03-23T14:58:28.552Z,9.10
2019-03-23T15:00:58.958Z,8.73
2019-03-23T15:03:29.240Z,9.50
2019-03-23T15:05:59.598Z,9.00
2019-03-23T15:08:31.871Z,9.07
2019-03-23T15:11:01.930Z,8.47
2019-03-23T15:13:32.221Z,7.50
2019-03-23T15:16:02.479Z,7.87
2019-03-23T15:18:32.928Z,6.70
2019-03-23T15:21:03.297Z,6.27
2019-03-23T15:23:33.506Z,7.20
2019-03-23T15:26:04.178Z,6.13
2019-03-23T15:28:34.808Z,5.60
2019-03-23T15:31:05.268Z,6.90
2019-03-23T15:33:35.583Z,5.70
2019-03-23T15:36:06.336Z,6.70
2019-03-23T15:38:36.750Z,5.87
2019-03-23T15:41:07.067Z,5.83
2019-03-23T15:43:38.621Z,6.23
2019-03-23T15:46:08.920Z,6.30
2019-03-23T15:48:39.053Z,6.13
2019-03-23T15:51:09.346Z,6.20
2019-03-23T15:53:40.864Z,6.23
2019-03-23T15:56:11.295Z,7.13
2019-03-23T15:58:41.617Z,8.57
2019-03-23T16:01:11.837Z,6.73
2019-03-23T16:03:42.221Z,5.83
2019-03-23T16:06:12.626Z,6.17
2019-03-23T16:08:43.061Z,6.37
2019-03-23T16:11:13.343Z,6.57
2019-03-23T16:13:43.722Z,6.63
2019-03-23T16:16:14.065Z,5.63
2019-03-23T16:18:44.385Z,5.53
2019-03-23T16:21:14.685Z,6.50
2019-03-23T16:23:45.127Z,7.17
2019-03-23T16:26:15.344Z,6.73
2019-03-23T16:28:45.666Z,6.70
2019-03-23T16:31:16.221Z,6.27
2019-03-23T16:33:46.346Z,6.20
2019-03-23T16:36:16.516Z,6.97
2019-03-23T16:38:46.892Z,6.13
2019-03-23T16:41:17.109Z,6.17
2019-03-23T16:43:47.419Z,5.87
2019-03-23T16:46:17.784Z,6.43
2019-03-23T16:48:48.274Z,5.27
2019-03-23T16:51:18.614Z,5.13
2019-03-23T16:53:49.135Z,5.03
2019-03-23T16:56:19.467Z,4.40
2019-03-23T16:58:49.887Z,4.30
2019-03-23T17:01:20.084Z,5.03
2019-03-23T17:03:50.504Z,5.67
2019-03-23T17:06:20.769Z,5.40
2019-03-23T17:08:51.048Z,5.27
2019-03-23T17:11:21.428Z,5.47
2019-03-23T17:13:53.121Z,5.27
2019-03-23T17:16:23.425Z,5.50
2019-03-23T17:18:53.755Z,4.80
2019-03-23T17:21:24.028Z,4.83
2019-03-23T17:23:54.280Z,6.17
2019-03-23T17:26:24.611Z,6.67
2019-03-23T17:28:55.058Z,6.27
2019-03-23T17:31:25.249Z,7.80
2019-03-23T17:33:55.623Z,6.70
2019-03-23T17:36:25.885Z,11.13
2019-03-23T17:38:56.465Z,8.70
2019-03-23T17:41:26.773Z,9.17
2019-03-23T17:43:57.062Z,6.00
2019-03-23T17:46:27.832Z,7.13
2019-03-23T17:48:58.132Z,6.37
2019-03-23T17:51:28.501Z,7.23
2019-03-23T17:53:59.107Z,5.60
2019-03-23T17:56:29.367Z,5.10
2019-03-23T17:58:59.688Z,4.47
2019-03-23T18:01:30.063Z,4.57
2019-03-23T18:04:00.450Z,4.50
2019-03-23T18:06:30.780Z,5.33
2019-03-23T18:09:00.984Z,4.67
2019-03-23T18:11:31.479Z,4.83
2019-03-23T18:14:01.961Z,4.10
2019-03-23T18:16:32.440Z,4.83
2019-03-23T18:19:02.710Z,5.50
2019-03-23T18:21:32.973Z,7.63
2019-03-23T18:24:03.517Z,5.73
2019-03-23T18:26:33.825Z,6.70
2019-03-23T18:29:05.412Z,4.40
2019-03-23T18:31:35.754Z,4.17
2019-03-23T18:34:06.388Z,4.87
2019-03-23T18:36:36.665Z,4.73
2019-03-23T18:39:07.886Z,4.73
2019-03-23T18:41:38.044Z,4.33
2019-03-23T18:44:16.233Z,4.37
2019-03-23T18:46:40.924Z,5.03
2019-03-23T18:49:11.441Z,4.43
2019-03-23T18:51:42.892Z,4.57
2019-03-23T18:54:13.166Z,4.70
2019-03-23T18:56:43.560Z,5.37
2019-03-23T18:59:13.914Z,5.43
2019-03-23T19:01:44.308Z,6.33
2019-03-23T19:04:14.533Z,6.23
2019-03-23T19:06:44.904Z,5.93
2019-03-23T19:09:15.155Z,7.20
2019-03-23T19:11:45.449Z,6.37
2019-03-23T19:14:15.981Z,5.77
2019-03-23T19:16:46.100Z,5.57
2019-03-23T19:19:16.422Z,6.00
2019-03-23T19:21:47.065Z,5.63
2019-03-23T19:24:17.279Z,5.70
2019-03-23T19:26:47.755Z,5.30
2019-03-23T19:29:17.931Z,5.03
2019-03-23T19:31:48.318Z,5.30
2019-03-23T19:34:18.487Z,4.63
2019-03-23T19:36:48.878Z,4.50
2019-03-23T19:39:19.042Z,4.80
2019-03-23T19:41:49.477Z,5.07
2019-03-23T19:44:19.889Z,5.00
2019-03-23T19:46:52.347Z,4.83
2019-03-23T19:49:22.396Z,5.50
2019-03-23T19:51:52.721Z,5.83
2019-03-23T19:54:23.088Z,6.07
2019-03-23T19:56:53.473Z,5.90
2019-03-23T19:59:23.753Z,6.73
2019-03-23T20:01:54.282Z,8.03
2019-03-23T20:04:24.618Z,7.10
2019-03-23T20:06:54.944Z,6.33
2019-03-23T20:09:25.320Z,7.17
2019-03-23T20:11:56.946Z,7.40
2019-03-23T20:14:27.197Z,6.63
2019-03-23T20:16:57.579Z,6.43
2019-03-23T20:19:27.847Z,6.03
2019-03-23T20:21:58.132Z,6.73
2019-03-23T20:24:28.637Z,7.53
2019-03-23T20:26:58.729Z,7.03
2019-03-23T20:29:29.038Z,8.00
2019-03-23T20:31:59.438Z,6.53
2019-03-23T20:34:31.025Z,6.73
2019-03-23T20:37:01.254Z,7.60
2019-03-23T20:39:31.745Z,9.23
2019-03-23T20:42:03.155Z,8.53
2019-03-23T20:44:34.177Z,8.33
2019-03-23T20:47:04.505Z,8.87
2019-03-23T20:49:36.369Z,8.23
2019-03-23T20:52:06.697Z,7.87
2019-03-23T20:54:37.184Z,5.93
2019-03-23T20:57:07.537Z,8.60
2019-03-23T20:59:38.040Z,7.73
2019-03-23T21:02:08.370Z,6.83
2019-03-23T21:04:38.725Z,7.93
2019-03-23T21:07:09.060Z,6.77
2019-03-23T21:09:40.628Z,6.43
2019-03-23T21:12:11.011Z,6.43
2019-03-23T21:14:41.139Z,6.67
2019-03-23T21:17:11.476Z,6.90
2019-03-23T21:19:41.929Z,6.60
2019-03-23T21:22:12.083Z,6.33
2019-03-23T21:24:42.411Z,6.37
2019-03-23T21:27:12.914Z,6.00
2019-03-23T21:29:43.021Z,8.63
2019-03-23T21:32:13.510Z,7.80
2019-03-23T21:34:43.759Z,8.53
2019-03-23T21:37:14.167Z,10.27
2019-03-23T21:39:44.388Z,7.90
2019-03-23T21:42:14.873Z,8.97
2019-03-23T21:44:45.244Z,6.77
2019-03-23T21:47:15.379Z,6.00
2019-03-23T21:49:45.523Z,6.27
2019-03-23T21:52:15.798Z,5.57
2019-03-23T21:54:45.975Z,5.70
2019-03-23T21:57:16.288Z,5.87
2019-03-23T21:59:46.691Z,6.27
2019-03-23T22:02:16.857Z,5.30
2019-03-23T22:04:47.239Z,5.10
2019-03-23T22:07:17.675Z,6.40
2019-03-23T22:09:47.896Z,5.70
2019-03-23T22:12:18.223Z,5.27
2019-03-23T22:14:48.552Z,5.70
2019-03-23T22:17:18.777Z,6.10
2019-03-23T22:19:49.103Z,5.93
2019-03-23T22:22:19.322Z,6.30
2019-03-23T22:24:49.591Z,5.80
2019-03-23T22:27:19.796Z,5.23
2019-03-23T22:29:50.041Z,5.13
2019-03-23T22:32:20.732Z,5.57
2019-03-23T22:34:51.005Z,4.70
2019-03-23T22:37:21.381Z,5.60
2019-03-23T22:39:51.914Z,5.40
2019-03-23T22:42:22.319Z,5.13
2019-03-23T22:44:52.970Z,5.73
2019-03-23T22:47:23.203Z,4.70
2019-03-23T22:49:53.373Z,4.90
2019-03-23T22:52:23.652Z,5.27
2019-03-23T22:54:53.982Z,6.03
2019-03-23T22:57:24.503Z,6.00
2019-03-23T22:59:54.769Z,7.33
2019-03-23T23:02:25.160Z,8.60
2019-03-23T23:04:55.637Z,9.37
2019-03-23T23:07:26.124Z,9.97
2019-03-23T23:09:56.330Z,8.40
2019-03-23T23:12:26.435Z,9.67
2019-03-23T23:15:04.379Z,8.73
2019-03-23T23:17:29.994Z,26.30
2019-03-23T23:20:00.421Z,38.87
2019-03-23T23:22:30.699Z,29.30
2019-03-23T23:25:01.171Z,29.70
2019-03-23T23:27:31.497Z,24.30
2019-03-23T23:30:02.003Z,10.07
2019-03-23T23:32:32.350Z,8.37
2019-03-23T23:35:02.607Z,7.30
2019-03-23T23:37:32.955Z,6.93
2019-03-23T23:40:03.435Z,6.70
2019-03-23T23:42:33.593Z,6.33
2019-03-23T23:45:14.543Z,6.10
2019-03-23T23:47:36.771Z,5.03
2019-03-23T23:50:08.889Z,5.83
2019-03-23T23:52:39.197Z,5.27
2019-03-23T23:55:09.899Z,5.10
2019-03-23T23:57:40.096Z,4.17
